Time;durP1;ratioP1;P1;durP2;ratioP2;P2;SDS_P1;SDS_P2;PMS_P1;PMS_P2;Temp;Humidity;BMP_temperature;BMP_pressure;BME280_temperature;BME280_humidity;BME280_pressure;Samples;Min_cycle;Max_cycle;Signal;HPM_P1;HPM_P2
2023/10/07 00:00:56;;;;;;;6.90;3.73;;;18.00;1.00;;;;;;5064312;28;20432;-78
2023/10/07 00:03:23;;;;;;;6.77;4.50;;;18.00;1.00;;;;;;5069178;28;22004;-79
2023/10/07 00:06:00;;;;;;;3.47;3.17;;;17.90;1.00;;;;;;5065202;28;20509;-77
2023/10/07 00:08:28;;;;;;;5.43;3.20;;;17.90;1.00;;;;;;5069495;28;20459;-74
2023/10/07 00:10:58;;;;;;;8.53;3.93;;;17.90;1.00;;;;;;5065577;28;20952;-77
2023/10/07 00:13:30;;;;;;;4.67;3.67;;;17.90;1.00;;;;;;5058674;28;20459;-78
2023/10/07 00:15:58;;;;;;;6.50;3.80;;;17.90;1.00;;;;;;5052602;28;20594;-76
2023/10/07 00:18:26;;;;;;;5.83;3.60;;;17.90;1.00;;;;;;5050161;28;20472;-77
2023/10/07 00:20:54;;;;;;;4.80;3.63;;;17.90;1.00;;;;;;5059983;28;20461;-78
2023/10/07 00:23:22;;;;;;;6.60;4.00;;;18.00;1.00;;;;;;5059407;28;20552;-75
2023/10/07 00:25:50;;;;;;;5.80;3.60;;;18.00;1.00;;;;;;5059373;28;21075;-76
2023/10/07 00:28:19;;;;;;;4.70;3.47;;;18.00;1.00;;;;;;5072381;28;20462;-76
2023/10/07 00:30:49;;;;;;;4.53;3.30;;;18.00;1.00;;;;;;5066638;28;20488;-77
2023/10/07 00:33:20;;;;;;;5.10;4.00;;;18.00;1.00;;;;;;5065130;28;20464;-76
2023/10/07 00:35:49;;;;;;;5.40;3.60;;;18.00;1.00;;;;;;5065081;28;20472;-76
2023/10/07 00:38:16;;;;;;;4.83;3.60;;;18.10;1.00;;;;;;5053053;28;20477;-75
2023/10/07 00:40:52;;;;;;;7.40;4.00;;;18.10;1.00;;;;;;5051350;28;20559;-77
2023/10/07 00:43:27;;;;;;;7.33;4.27;;;18.10;1.00;;;;;;5070914;28;20456;-77
2023/10/07 00:46:06;;;;;;;4.73;3.80;;;18.10;1.00;;;;;;5063867;28;20482;-77
2023/10/07 00:48:45;;;;;;;5.90;3.90;;;18.10;1.00;;;;;;5055094;28;20518;-75
2023/10/07 00:51:13;;;;;;;5.67;4.30;;;18.10;1.00;;;;;;5059162;28;20511;-77
2023/10/07 00:53:46;;;;;;;7.50;4.57;;;18.10;1.00;;;;;;5066303;28;21039;-77
2023/10/07 00:56:15;;;;;;;5.77;3.90;;;18.10;1.00;;;;;;5068152;28;20465;-78
2023/10/07 00:58:46;;;;;;;3.80;2.83;;;18.10;1.00;;;;;;5066646;28;20476;-78
2023/10/07 01:01:16;;;;;;;5.50;3.87;;;18.10;1.00;;;;;;5062549;28;20468;-77
2023/10/07 01:03:48;;;;;;;6.13;3.53;;;18.10;1.00;;;;;;5065635;28;20846;-76
2023/10/07 01:06:25;;;;;;;5.80;4.37;;;18.10;1.00;;;;;;5051712;28;20464;-78
2023/10/07 01:08:58;;;;;;;3.83;3.43;;;18.10;1.00;;;;;;5046469;28;20550;-76
2023/10/07 01:11:29;;;;;;;5.50;3.90;;;18.10;1.00;;;;;;5055932;28;20476;-78
2023/10/07 01:13:59;;;;;;;8.23;4.47;;;18.10;1.00;;;;;;5058169;28;20819;-75
2023/10/07 01:16:33;;;;;;;5.87;4.10;;;18.10;1.00;;;;;;5065257;28;20988;-78
2023/10/07 01:19:18;;;;;;;5.97;3.57;;;18.10;1.00;;;;;;5067824;28;20460;-76
2023/10/07 01:21:50;;;;;;;4.90;3.30;;;18.10;1.00;;;;;;5069100;28;20467;-77
2023/10/07 01:24:33;;;;;;;6.37;4.17;;;18.10;1.00;;;;;;5066203;28;20493;-74
2023/10/07 01:27:06;;;;;;;4.77;3.70;;;18.10;1.00;;;;;;5061885;28;20475;-72
2023/10/07 01:29:35;;;;;;;6.67;3.83;;;18.10;1.00;;;;;;5051300;28;20460;-71
2023/10/07 01:32:11;;;;;;;5.07;3.70;;;18.10;1.00;;;;;;5052521;28;20559;-70
2023/10/07 01:34:47;;;;;;;7.00;3.23;;;18.10;1.00;;;;;;5045385;28;20954;-71
2023/10/07 01:37:20;;;;;;;6.20;4.40;;;18.10;1.00;;;;;;5054057;28;20982;-74
2023/10/07 01:39:49;;;;;;;7.10;4.03;;;18.10;1.00;;;;;;5066063;27;20462;-72
2023/10/07 01:42:23;;;;;;;6.77;3.93;;;18.10;1.00;;;;;;5047598;28;20460;-70
2023/10/07 01:44:55;;;;;;;6.57;4.00;;;18.10;1.00;;;;;;5044459;28;20472;-71
2023/10/07 01:47:24;;;;;;;6.90;4.60;;;18.10;1.00;;;;;;5052952;28;20543;-71
2023/10/07 01:49:53;;;;;;;4.87;3.20;;;18.10;1.00;;;;;;5050097;28;21300;-72
2023/10/07 01:52:24;;;;;;;4.93;3.53;;;18.10;1.00;;;;;;5052667;27;20863;-74
2023/10/07 01:54:54;;;;;;;4.33;3.30;;;18.10;1.00;;;;;;5057062;28;20509;-73
2023/10/07 01:57:21;;;;;;;6.03;3.87;;;18.10;1.00;;;;;;5069735;28;20487;-71
2023/10/07 01:59:48;;;;;;;5.80;4.30;;;18.10;1.00;;;;;;5065324;28;21129;-71
2023/10/07 02:02:15;;;;;;;5.57;4.07;;;18.10;1.00;;;;;;5070061;28;20499;-73
2023/10/07 02:04:42;;;;;;;6.60;4.10;;;18.10;1.00;;;;;;5065638;28;20420;-70
2023/10/07 02:07:10;;;;;;;5.23;3.93;;;18.10;1.00;;;;;;5065936;28;22840;-71
2023/10/07 02:09:40;;;;;;;7.10;4.07;;;18.10;1.00;;;;;;5067368;28;20472;-71
2023/10/07 02:12:10;;;;;;;5.53;3.50;;;18.10;1.00;;;;;;5067463;28;20464;-72
2023/10/07 02:14:38;;;;;;;7.40;4.13;;;18.10;1.00;;;;;;5067070;28;20460;-70
2023/10/07 02:17:08;;;;;;;5.57;3.63;;;18.10;1.00;;;;;;5069570;28;20468;-72
2023/10/07 02:19:35;;;;;;;8.27;4.50;;;18.00;1.00;;;;;;5067201;28;20471;-71
2023/10/07 02:22:04;;;;;;;5.30;4.17;;;18.00;1.00;;;;;;5066032;28;20472;-70
2023/10/07 02:24:32;;;;;;;7.27;3.67;;;18.00;1.00;;;;;;5064354;28;20469;-74
2023/10/07 02:27:01;;;;;;;7.10;3.80;;;18.00;1.00;;;;;;5067205;28;20990;-72
2023/10/07 02:29:30;;;;;;;5.10;3.97;;;18.10;1.00;;;;;;5066110;28;20563;-72
2023/10/07 02:32:07;;;;;;;7.43;4.97;;;18.10;1.00;;;;;;5067254;28;20561;-71
2023/10/07 02:34:34;;;;;;;7.60;4.33;;;18.00;1.00;;;;;;5067648;28;20464;-79
2023/10/07 02:37:13;;;;;;;8.03;4.03;;;18.00;1.00;;;;;;5065747;28;20476;-77
2023/10/07 02:39:54;;;;;;;5.60;4.20;;;18.00;1.00;;;;;;5068372;28;20964;-79
2023/10/07 02:42:28;;;;;;;4.87;4.17;;;18.00;1.00;;;;;;5065853;28;20468;-79
2023/10/07 02:45:11;;;;;;;7.37;4.43;;;18.00;1.00;;;;;;5064792;28;21570;-77
2023/10/07 02:47:39;;;;;;;5.03;3.73;;;17.90;1.00;;;;;;5056090;28;20535;-74
2023/10/07 02:50:07;;;;;;;5.57;4.27;;;17.90;1.00;;;;;;5083870;28;20448;-77
2023/10/07 02:52:36;;;;;;;7.60;4.77;;;17.90;1.00;;;;;;5063782;28;20566;-77
2023/10/07 02:55:28;;;;;;;10.17;5.23;;;17.90;1.00;;;;;;5066030;28;20527;-79
2023/10/07 02:57:56;;;;;;;7.07;5.00;;;17.90;1.00;;;;;;5064188;28;20456;-77
2023/10/07 03:00:35;;;;;;;7.60;4.90;;;17.90;1.00;;;;;;5064783;28;20439;-79
2023/10/07 03:03:19;;;;;;;7.27;4.60;;;17.90;1.00;;;;;;5046582;27;20471;-76
2023/10/07 03:05:57;;;;;;;7.13;4.60;;;17.90;1.00;;;;;;5043673;28;20472;-75
2023/10/07 03:08:39;;;;;;;6.70;5.00;;;17.90;1.00;;;;;;5044113;28;20910;-76
2023/10/07 03:11:11;;;;;;;8.50;6.10;;;17.90;1.00;;;;;;5045898;28;20444;-75
2023/10/07 03:13:38;;;;;;;5.53;4.20;;;17.90;1.00;;;;;;5045492;28;20465;-77
2023/10/07 03:16:27;;;;;;;7.87;5.03;;;17.90;1.00;;;;;;5065986;28;20507;-76
2023/10/07 03:19:06;;;;;;;5.77;4.27;;;17.90;1.00;;;;;;5054113;27;20452;-76
2023/10/07 03:21:55;;;;;;;6.10;4.50;;;18.00;1.00;;;;;;5054303;28;21571;-76
2023/10/07 03:24:41;;;;;;;5.93;4.80;;;17.90;1.00;;;;;;5065741;27;20857;-79
2023/10/07 03:27:22;;;;;;;7.43;5.00;;;17.90;1.00;;;;;;5046429;28;20413;-79
2023/10/07 03:30:00;;;;;;;7.93;4.70;;;18.00;1.00;;;;;;5042630;28;20487;-79
2023/10/07 03:32:53;;;;;;;8.00;4.93;;;17.90;1.00;;;;;;5046767;28;20465;-74
2023/10/07 03:35:35;;;;;;;4.70;3.90;;;17.90;1.00;;;;;;5067530;28;20479;-75
2023/10/07 03:38:08;;;;;;;8.27;4.77;;;18.00;1.00;;;;;;5047331;28;20485;-75
2023/10/07 03:40:38;;;;;;;6.90;4.83;;;17.90;1.00;;;;;;5063010;28;20977;-75
2023/10/07 03:43:08;;;;;;;6.30;4.20;;;17.90;1.00;;;;;;5066640;28;20890;-76
2023/10/07 03:45:39;;;;;;;6.17;4.77;;;17.90;1.00;;;;;;5063597;28;20460;-70
2023/10/07 03:48:23;;;;;;;9.67;5.00;;;17.90;1.00;;;;;;5045981;28;20546;-71
2023/10/07 03:50:59;;;;;;;6.87;4.70;;;17.90;1.00;;;;;;5067452;28;20479;-71
2023/10/07 03:53:31;;;;;;;6.00;4.70;;;17.90;1.00;;;;;;5067113;28;22405;-72
2023/10/07 03:56:00;;;;;;;5.40;4.73;;;17.90;1.00;;;;;;5051817;28;20925;-71
2023/10/07 03:58:28;;;;;;;5.03;4.50;;;17.80;1.00;;;;;;5042855;28;20547;-72
2023/10/07 04:00:56;;;;;;;7.10;4.90;;;17.80;1.00;;;;;;5047153;28;20509;-72
2023/10/07 04:03:25;;;;;;;7.47;4.87;;;17.80;1.00;;;;;;5042964;28;20462;-71
2023/10/07 04:05:52;;;;;;;4.90;4.20;;;17.80;1.00;;;;;;5040814;28;20468;-71
2023/10/07 04:08:19;;;;;;;7.23;3.90;;;17.80;1.00;;;;;;5046799;28;20588;-72
2023/10/07 04:10:47;;;;;;;6.60;4.57;;;17.80;1.00;;;;;;5044846;28;20584;-71
2023/10/07 04:13:21;;;;;;;6.07;4.67;;;17.80;1.00;;;;;;5053060;28;20590;-71
2023/10/07 04:15:52;;;;;;;5.63;5.00;;;17.80;1.00;;;;;;5064098;28;20469;-69
2023/10/07 04:18:26;;;;;;;7.20;5.17;;;17.80;1.00;;;;;;5066852;28;20462;-72
2023/10/07 04:20:58;;;;;;;7.03;4.77;;;17.80;1.00;;;;;;5066539;28;20459;-74
2023/10/07 04:23:27;;;;;;;8.37;4.80;;;17.70;1.00;;;;;;5069788;28;20512;-71
2023/10/07 04:26:05;;;;;;;7.00;5.20;;;17.70;1.00;;;;;;5066482;28;21026;-72
2023/10/07 04:28:33;;;;;;;5.10;4.60;;;17.70;1.00;;;;;;5068341;28;20487;-71
2023/10/07 04:31:00;;;;;;;6.00;5.07;;;17.70;1.00;;;;;;5059891;28;20568;-70
2023/10/07 04:33:32;;;;;;;6.77;5.20;;;17.70;1.00;;;;;;5071224;28;20463;-72
2023/10/07 04:36:04;;;;;;;7.77;5.00;;;17.80;1.00;;;;;;5067865;28;20940;-70
2023/10/07 04:38:52;;;;;;;6.90;4.90;;;17.80;1.00;;;;;;5070616;28;21837;-72
2023/10/07 04:41:32;;;;;;;7.20;4.83;;;17.70;1.00;;;;;;5067491;28;20467;-71
2023/10/07 04:46:45;;;;;;;5.90;4.27;;;17.70;1.00;;;;;;5056109;28;20552;-70
2023/10/07 04:49:14;;;;;;;6.47;4.60;;;17.70;1.00;;;;;;5066575;28;20833;-73
2023/10/07 04:51:55;;;;;;;6.83;5.13;;;17.80;1.00;;;;;;5058740;28;20457;-71
2023/10/07 04:54:35;;;;;;;8.17;4.60;;;17.70;1.00;;;;;;5054943;28;20527;-74
2023/10/07 04:57:09;;;;;;;5.30;4.60;;;17.70;1.00;;;;;;5064424;28;20527;-75
2023/10/07 04:59:41;;;;;;;4.17;3.77;;;17.70;1.00;;;;;;5069856;28;21496;-76
2023/10/07 05:02:10;;;;;;;8.30;5.00;;;17.70;1.00;;;;;;5069279;28;20471;-77
2023/10/07 05:04:39;;;;;;;4.80;4.30;;;17.70;1.00;;;;;;5052345;28;20539;-77
2023/10/07 05:07:10;;;;;;;5.30;4.80;;;17.70;1.00;;;;;;5052791;28;20999;-76
2023/10/07 05:09:36;;;;;;;9.73;5.23;;;17.70;1.00;;;;;;5052190;28;21853;-75
2023/10/07 05:12:06;;;;;;;5.37;4.60;;;17.60;1.00;;;;;;5050828;28;20571;-74
2023/10/07 05:14:35;;;;;;;6.10;5.00;;;17.50;1.00;;;;;;5055385;28;20512;-80
2023/10/07 05:17:02;;;;;;;7.13;5.70;;;17.30;1.00;;;;;;5070738;28;20478;-79
2023/10/07 05:19:30;;;;;;;6.03;5.47;;;17.20;1.00;;;;;;5070779;28;20463;-79
2023/10/07 05:22:14;;;;;;;6.53;5.73;;;17.20;1.00;;;;;;5063974;27;20471;-79
2023/10/07 05:24:46;;;;;;;6.27;5.30;;;17.20;1.00;;;;;;5070534;28;20455;-80
2023/10/07 05:27:14;;;;;;;9.60;5.30;;;17.20;1.00;;;;;;5073573;28;20456;-79
2023/10/07 05:29:43;;;;;;;6.30;5.70;;;17.30;1.00;;;;;;5075251;28;20512;-79
2023/10/07 05:32:11;;;;;;;8.00;7.20;;;17.40;1.00;;;;;;5056551;28;20509;-77
2023/10/07 05:34:38;;;;;;;7.37;4.80;;;17.50;1.00;;;;;;5078049;28;22202;-80
2023/10/07 05:37:11;;;;;;;6.60;5.50;;;17.50;1.00;;;;;;5073855;28;20566;-80
2023/10/07 05:39:38;;;;;;;6.70;4.70;;;17.50;1.00;;;;;;5068477;28;20459;-80
2023/10/07 05:42:06;;;;;;;8.40;5.50;;;17.50;1.00;;;;;;5065832;28;20507;-78
2023/10/07 05:44:35;;;;;;;5.63;5.03;;;17.50;1.00;;;;;;5072796;28;20508;-78
2023/10/07 05:47:03;;;;;;;7.50;5.37;;;17.50;1.00;;;;;;5073749;28;20510;-78
2023/10/07 05:49:31;;;;;;;7.63;5.70;;;17.50;1.00;;;;;;5077692;28;20446;-78
2023/10/07 05:51:59;;;;;;;6.67;5.13;;;17.60;1.00;;;;;;5065875;28;20979;-79
2023/10/07 05:54:28;;;;;;;8.03;5.83;;;17.60;1.00;;;;;;5056213;28;20519;-78
2023/10/07 05:56:55;;;;;;;6.00;5.43;;;17.60;1.00;;;;;;5052479;28;20457;-79
2023/10/07 05:59:23;;;;;;;8.43;4.87;;;17.60;1.00;;;;;;5054329;28;20545;-78
2023/10/07 06:01:50;;;;;;;11.03;5.20;;;17.60;1.00;;;;;;5067853;28;20531;-75
2023/10/07 06:04:19;;;;;;;7.33;4.73;;;17.60;1.00;;;;;;5053244;28;20438;-78
2023/10/07 06:06:46;;;;;;;7.23;4.70;;;17.70;1.00;;;;;;5065571;28;20486;-77
2023/10/07 06:09:14;;;;;;;5.63;5.00;;;17.60;1.00;;;;;;5069428;28;20554;-79
2023/10/07 06:11:42;;;;;;;9.17;5.63;;;17.60;1.00;;;;;;5069248;28;20477;-78
2023/10/07 06:14:11;;;;;;;6.30;5.80;;;17.60;1.00;;;;;;5071175;28;20451;-79
2023/10/07 06:16:42;;;;;;;6.13;4.90;;;17.60;1.00;;;;;;5073132;28;20821;-80
2023/10/07 06:19:11;;;;;;;5.73;5.23;;;17.60;1.00;;;;;;5071812;28;20571;-77
2023/10/07 06:21:44;;;;;;;9.20;5.77;;;17.60;1.00;;;;;;5071659;28;20538;-78
2023/10/07 06:24:14;;;;;;;8.07;6.13;;;17.50;1.00;;;;;;5074106;28;20506;-80
2023/10/07 06:26:43;;;;;;;6.90;6.30;;;17.50;1.00;;;;;;5072335;28;20459;-79
2023/10/07 06:29:18;;;;;;;6.87;5.53;;;17.40;1.00;;;;;;5071787;28;21114;-79
2023/10/07 06:31:54;;;;;;;10.60;5.27;;;17.40;1.00;;;;;;5073450;28;20488;-79
2023/10/07 06:34:25;;;;;;;8.60;6.23;;;17.30;1.00;;;;;;5073582;28;21082;-79
2023/10/07 06:36:54;;;;;;;9.10;6.63;;;17.20;1.00;;;;;;5076470;28;20467;-75
2023/10/07 06:39:27;;;;;;;7.63;5.87;;;17.10;1.00;;;;;;5068609;28;20598;-72
2023/10/07 06:41:55;;;;;;;7.47;6.67;;;17.00;1.00;;;;;;5067547;28;20963;-73
2023/10/07 06:44:23;;;;;;;7.33;6.63;;;16.90;1.00;;;;;;5073847;28;20452;-73
2023/10/07 06:46:55;;;;;;;7.93;6.37;;;16.80;1.00;;;;;;5070923;28;20463;-74
2023/10/07 06:49:22;;;;;;;10.73;6.73;;;16.80;1.00;;;;;;5070184;28;20417;-76
2023/10/07 06:51:53;;;;;;;8.20;6.97;;;16.80;1.00;;;;;;5070055;28;20545;-73
2023/10/07 06:54:20;;;;;;;7.63;6.93;;;16.80;1.00;;;;;;5070236;28;20485;-74
2023/10/07 06:56:50;;;;;;;7.90;6.90;;;16.80;1.00;;;;;;5063599;28;20888;-74
2023/10/07 06:59:17;;;;;;;7.47;6.77;;;16.90;1.00;;;;;;5068261;28;20960;-73
2023/10/07 07:01:54;;;;;;;11.33;7.00;;;16.90;1.00;;;;;;5050649;28;20488;-73
2023/10/07 07:04:23;;;;;;;7.13;6.43;;;16.90;1.00;;;;;;5065293;28;20464;-74
2023/10/07 07:06:58;;;;;;;7.10;6.40;;;16.90;1.00;;;;;;5072812;28;20892;-74
2023/10/07 07:12:16;;;;;;;7.27;6.03;;;16.90;1.00;;;;;;5046951;28;20551;-74
2023/10/07 07:14:48;;;;;;;7.37;6.50;;;17.00;1.00;;;;;;5052002;28;20607;-75
2023/10/07 07:17:30;;;;;;;10.37;7.37;;;17.00;1.00;;;;;;5052026;28;20468;-72
2023/10/07 07:20:29;;;;;;;11.00;6.87;;;17.00;1.00;;;;;;5059178;28;20521;-74
2023/10/07 07:23:03;;;;;;;9.13;8.23;;;16.90;1.00;;;;;;5049027;28;20482;-74
2023/10/07 07:25:39;;;;;;;7.73;6.70;;;16.70;1.00;;;;;;5047011;28;20561;-74
2023/10/07 07:28:09;;;;;;;10.13;8.10;;;16.70;1.00;;;;;;5067790;28;20920;-73
2023/10/07 07:30:35;;;;;;;8.43;7.63;;;16.50;1.00;;;;;;5068961;28;20460;-75
2023/10/07 07:33:07;;;;;;;8.40;7.40;;;16.50;1.00;;;;;;5067653;28;20471;-75
2023/10/07 07:35:40;;;;;;;7.97;7.17;;;16.50;1.00;;;;;;5068261;28;21245;-74
2023/10/07 07:38:22;;;;;;;8.97;8.10;;;16.50;1.00;;;;;;5067526;28;20479;-76
2023/10/07 07:40:49;;;;;;;8.67;7.87;;;16.50;1.00;;;;;;5070685;28;20466;-75
2023/10/07 07:43:19;;;;;;;9.50;7.80;;;16.60;1.00;;;;;;5067356;28;23252;-75
2023/10/07 07:45:48;;;;;;;9.00;7.80;;;16.70;1.00;;;;;;5067805;28;20538;-76
2023/10/07 07:48:16;;;;;;;8.87;7.97;;;16.80;1.00;;;;;;5065571;28;20925;-74
2023/10/07 07:50:45;;;;;;;8.80;7.77;;;16.80;1.00;;;;;;5060485;28;20457;-76
2023/10/07 07:53:12;;;;;;;8.50;7.67;;;16.90;1.00;;;;;;5066458;28;20542;-74
2023/10/07 07:55:43;;;;;;;8.27;7.07;;;17.00;1.00;;;;;;5071769;28;20470;-74
2023/10/07 07:58:10;;;;;;;8.90;7.20;;;17.10;1.00;;;;;;5073432;28;20455;-74
2023/10/07 08:00:44;;;;;;;9.10;7.20;;;17.10;1.00;;;;;;5066989;28;20971;-75
2023/10/07 08:03:11;;;;;;;7.60;6.53;;;17.20;1.00;;;;;;5050758;28;20480;-75
2023/10/07 08:05:41;;;;;;;7.87;7.00;;;17.20;1.00;;;;;;5052064;28;21008;-76
2023/10/07 08:08:19;;;;;;;7.10;6.40;;;17.30;1.00;;;;;;5053241;28;20460;-75
2023/10/07 08:10:47;;;;;;;6.93;6.20;;;17.30;1.00;;;;;;5051536;28;21010;-74
2023/10/07 08:13:17;;;;;;;7.00;6.30;;;17.30;1.00;;;;;;5053135;28;20479;-75
2023/10/07 08:15:47;;;;;;;6.73;6.13;;;17.30;1.00;;;;;;5050359;28;20581;-73
2023/10/07 08:18:15;;;;;;;7.33;5.83;;;17.40;1.00;;;;;;5067655;28;20459;-73
2023/10/07 08:20:44;;;;;;;6.50;5.90;;;17.50;1.00;;;;;;5068998;28;20521;-74
2023/10/07 08:23:22;;;;;;;6.73;6.03;;;17.50;1.00;;;;;;5070998;28;21185;-74
2023/10/07 08:25:57;;;;;;;6.30;5.70;;;17.50;1.00;;;;;;5073441;28;20460;-74
2023/10/07 08:28:39;;;;;;;6.27;5.63;;;17.50;1.00;;;;;;5070947;28;20447;-75
2023/10/07 08:31:14;;;;;;;6.73;6.13;;;17.40;1.00;;;;;;5071282;28;20465;-73
2023/10/07 08:33:41;;;;;;;6.97;6.27;;;17.40;1.00;;;;;;5065161;28;20467;-75
2023/10/07 08:36:08;;;;;;;8.20;5.73;;;17.50;1.00;;;;;;5076156;28;21005;-72
2023/10/07 08:38:43;;;;;;;6.40;5.70;;;17.50;1.00;;;;;;5072545;28;20489;-72
2023/10/07 08:41:16;;;;;;;7.30;6.13;;;17.50;1.00;;;;;;5071256;28;20459;-71
2023/10/07 08:43:45;;;;;;;7.13;6.53;;;17.50;1.00;;;;;;5070349;28;20850;-70
2023/10/07 08:46:16;;;;;;;6.90;6.17;;;17.40;1.00;;;;;;5070011;28;21097;-71
2023/10/07 08:48:49;;;;;;;6.20;5.70;;;17.40;1.00;;;;;;5074639;28;20460;-72
2023/10/07 08:51:24;;;;;;;6.80;6.20;;;17.50;1.00;;;;;;5069057;28;20499;-71
2023/10/07 08:54:05;;;;;;;6.97;6.33;;;17.50;1.00;;;;;;5056299;28;20554;-73
2023/10/07 08:56:35;;;;;;;7.20;6.60;;;17.50;1.00;;;;;;5067579;28;20493;-75
2023/10/07 08:59:06;;;;;;;7.00;6.00;;;17.60;1.00;;;;;;5054671;28;20836;-70
2023/10/07 09:01:34;;;;;;;6.20;5.60;;;17.70;1.00;;;;;;5065898;28;20983;-74
2023/10/07 09:04:07;;;;;;;7.70;6.03;;;17.80;1.00;;;;;;5065588;28;21179;-69
2023/10/07 09:06:37;;;;;;;8.03;5.10;;;17.80;1.00;;;;;;5070592;28;20480;-71
2023/10/07 09:09:07;;;;;;;7.70;6.80;;;17.90;1.00;;;;;;5073112;28;21225;-70
2023/10/07 09:11:37;;;;;;;6.10;5.53;;;17.80;1.00;;;;;;5066918;28;20989;-70
2023/10/07 09:14:08;;;;;;;9.70;5.77;;;17.90;1.00;;;;;;5075161;28;20533;-71
2023/10/07 09:16:35;;;;;;;6.37;5.77;;;18.00;1.00;;;;;;5075312;28;20972;-70
2023/10/07 09:19:10;;;;;;;6.40;5.80;;;18.10;1.00;;;;;;5072080;28;20474;-68
2023/10/07 09:21:38;;;;;;;6.53;5.93;;;18.00;1.00;;;;;;5057601;28;20951;-70
2023/10/07 09:24:15;;;;;;;8.63;5.80;;;18.00;1.00;;;;;;5052730;28;21120;-71
2023/10/07 09:26:56;;;;;;;6.97;5.50;;;18.00;1.00;;;;;;5061407;28;20461;-70
2023/10/07 09:29:27;;;;;;;6.70;5.93;;;17.90;1.00;;;;;;5051505;28;20544;-68
2023/10/07 09:32:04;;;;;;;6.20;5.60;;;17.90;1.00;;;;;;5042546;28;20448;-68
2023/10/07 09:34:41;;;;;;;6.37;5.67;;;17.90;1.00;;;;;;5048442;28;20962;-69
2023/10/07 09:37:12;;;;;;;6.73;6.13;;;17.90;1.00;;;;;;5050243;28;20543;-70
2023/10/07 09:39:45;;;;;;;7.23;6.30;;;17.90;1.00;;;;;;5063313;28;21084;-69
2023/10/07 09:45:10;;;;;;;7.10;6.03;;;17.90;1.00;;;;;;5061177;28;20515;-74
2023/10/07 09:47:38;;;;;;;8.33;7.63;;;17.90;1.00;;;;;;5070677;28;20536;-76
2023/10/07 09:50:11;;;;;;;10.23;6.50;;;17.90;1.00;;;;;;5068183;28;20588;-76
2023/10/07 09:52:41;;;;;;;6.83;5.90;;;17.90;1.00;;;;;;5072030;28;21274;-76
2023/10/07 09:55:38;;;;;;;8.57;7.00;;;17.90;1.00;;;;;;5074983;28;20511;-75
2023/10/07 09:58:29;;;;;;;7.70;6.90;;;17.90;1.00;;;;;;5040185;28;20464;-75
2023/10/07 10:01:05;;;;;;;7.67;7.07;;;17.90;1.00;;;;;;5049960;28;20457;-73
2023/10/07 10:03:59;;;;;;;9.70;8.00;;;17.90;1.00;;;;;;5050412;28;20471;-77
2023/10/07 10:06:52;;;;;;;9.43;7.70;;;17.90;1.00;;;;;;5048448;28;20592;-75
2023/10/07 10:09:27;;;;;;;9.37;8.40;;;17.90;1.00;;;;;;5067023;28;20457;-77
2023/10/07 10:14:56;;;;;;;11.73;8.70;;;17.90;1.00;;;;;;5052246;28;20999;-75
2023/10/07 10:17:32;;;;;;;10.20;9.30;;;17.90;1.00;;;;;;5055261;28;20891;-76
2023/10/07 10:20:09;;;;;;;10.50;9.43;;;17.90;1.00;;;;;;5071733;28;20549;-76
2023/10/07 10:22:37;;;;;;;10.80;9.70;;;17.80;1.00;;;;;;5057021;28;20526;-75
2023/10/07 10:25:21;;;;;;;11.30;10.27;;;17.80;1.00;;;;;;5054846;28;20549;-77
2023/10/07 10:27:51;;;;;;;11.80;10.80;;;17.80;1.00;;;;;;5070008;28;20572;-78
2023/10/07 10:30:24;;;;;;;12.00;10.83;;;17.70;1.00;;;;;;5062291;28;20456;-75
2023/10/07 10:32:57;;;;;;;12.20;11.27;;;17.70;1.00;;;;;;5066050;28;20986;-76
2023/10/07 10:35:25;;;;;;;11.27;10.20;;;17.70;1.00;;;;;;5070349;28;20538;-74
2023/10/07 10:37:56;;;;;;;12.13;9.93;;;17.80;1.00;;;;;;5067878;28;20500;-76
2023/10/07 10:40:24;;;;;;;11.97;10.87;;;17.80;1.00;;;;;;5055225;28;20461;-76
2023/10/07 10:42:52;;;;;;;11.90;10.90;;;17.70;1.00;;;;;;5071271;28;20578;-74
2023/10/07 10:45:20;;;;;;;12.60;11.50;;;17.80;1.00;;;;;;5066787;28;20582;-78
2023/10/07 10:47:50;;;;;;;12.17;11.17;;;17.80;1.00;;;;;;5071997;28;20904;-75
2023/10/07 10:50:19;;;;;;;12.57;11.30;;;17.80;1.00;;;;;;5072801;27;20460;-77
2023/10/07 10:52:48;;;;;;;13.60;12.30;;;17.70;1.00;;;;;;5072138;28;20910;-77
2023/10/07 10:55:15;;;;;;;12.60;11.30;;;17.70;1.00;;;;;;5069194;28;20904;-70
2023/10/07 10:57:42;;;;;;;14.53;13.43;;;17.60;1.00;;;;;;5065905;28;20483;-68
2023/10/07 11:00:19;;;;;;;14.23;12.87;;;17.50;1.00;;;;;;5070669;28;20475;-68
2023/10/07 11:02:47;;;;;;;14.93;13.47;;;17.40;1.00;;;;;;5070877;28;20605;-68
2023/10/07 11:05:14;;;;;;;14.27;13.07;;;17.30;1.00;;;;;;5071630;28;20463;-68
2023/10/07 11:07:42;;;;;;;15.73;14.30;;;17.20;1.00;;;;;;5061893;28;20492;-73
2023/10/07 11:10:10;;;;;;;15.37;14.07;;;17.10;1.00;;;;;;5069964;28;20502;-68
2023/10/07 11:12:40;;;;;;;13.93;12.60;;;17.10;1.00;;;;;;5065487;28;20483;-70
2023/10/07 11:15:13;;;;;;;14.37;13.10;;;17.00;1.00;;;;;;5071624;28;20564;-68
2023/10/07 11:17:56;;;;;;;15.63;13.90;;;17.10;1.00;;;;;;5094481;27;20646;-69
2023/10/07 11:20:24;;;;;;;14.77;13.47;;;17.20;1.00;;;;;;5085547;28;21574;-69
2023/10/07 11:22:53;;;;;;;15.03;13.57;;;17.20;1.00;;;;;;5074718;27;21095;-69
2023/10/07 11:25:24;;;;;;;14.43;13.23;;;17.20;1.00;;;;;;5077725;28;21776;-69
2023/10/07 11:27:51;;;;;;;15.17;13.77;;;17.20;1.00;;;;;;5084759;28;20933;-69
2023/10/07 11:30:21;;;;;;;15.73;14.30;;;17.30;1.00;;;;;;5083578;27;20463;-74
2023/10/07 11:32:48;;;;;;;14.00;12.70;;;17.30;1.00;;;;;;5087247;27;20466;-70
2023/10/07 11:35:20;;;;;;;15.30;13.80;;;17.40;1.00;;;;;;5081713;28;20464;-68
2023/10/07 11:37:49;;;;;;;14.87;13.67;;;17.40;1.00;;;;;;5081298;28;20517;-68
2023/10/07 11:40:17;;;;;;;15.63;14.10;;;17.40;1.00;;;;;;5073052;28;20974;-69
2023/10/07 11:42:44;;;;;;;14.30;13.10;;;17.50;1.00;;;;;;5081603;27;20489;-71
2023/10/07 11:45:11;;;;;;;14.27;13.00;;;17.50;1.00;;;;;;5079637;28;20510;-70
2023/10/07 11:47:39;;;;;;;15.23;13.73;;;17.60;1.00;;;;;;5067823;28;20804;-71
2023/10/07 11:50:07;;;;;;;13.97;12.63;;;17.60;1.00;;;;;;5077916;28;20452;-72
2023/10/07 11:52:37;;;;;;;14.30;13.00;;;17.50;1.00;;;;;;5058622;27;20483;-69
2023/10/07 11:55:07;;;;;;;14.17;12.93;;;17.50;1.00;;;;;;5073294;28;20469;-70
2023/10/07 11:57:34;;;;;;;15.17;13.87;;;17.50;1.00;;;;;;5081671;27;20463;-68
2023/10/07 12:00:03;;;;;;;14.83;13.23;;;17.60;1.00;;;;;;5084664;27;21228;-70
2023/10/07 12:02:30;;;;;;;15.57;14.07;;;17.50;1.00;;;;;;5081541;28;20466;-72
2023/10/07 12:04:59;;;;;;;15.53;14.13;;;17.50;1.00;;;;;;5078624;28;21042;-70
2023/10/07 12:07:29;;;;;;;17.53;14.07;;;17.50;1.00;;;;;;5069998;28;20478;-75
2023/10/07 12:09:59;;;;;;;16.87;15.27;;;17.40;1.00;;;;;;5078897;27;20514;-75
2023/10/07 12:12:27;;;;;;;16.27;15.00;;;17.40;1.00;;;;;;5070564;28;21090;-75
2023/10/07 12:14:54;;;;;;;17.10;15.63;;;17.40;1.00;;;;;;5061755;28;20454;-76
2023/10/07 12:17:20;;;;;;;17.00;15.40;;;17.40;1.00;;;;;;5108537;27;20550;-75
2023/10/07 12:19:47;;;;;;;17.70;15.20;;;17.30;1.00;;;;;;5121040;27;21074;-75
2023/10/07 12:22:15;;;;;;;16.97;15.37;;;17.30;1.00;;;;;;5123941;27;20544;-75
2023/10/07 12:24:43;;;;;;;18.33;16.60;;;17.10;1.00;;;;;;5121352;27;20500;-75
2023/10/07 12:27:12;;;;;;;17.00;15.03;;;17.10;1.00;;;;;;5126674;27;20480;-76
2023/10/07 12:29:40;;;;;;;17.10;15.60;;;17.10;1.00;;;;;;5108989;27;20481;-75
2023/10/07 12:32:07;;;;;;;17.87;16.07;;;17.10;1.00;;;;;;5112496;27;21136;-76
2023/10/07 12:34:34;;;;;;;16.17;14.67;;;17.10;1.00;;;;;;5117001;27;20468;-75
2023/10/07 12:37:00;;;;;;;19.17;17.37;;;17.00;1.00;;;;;;5108579;27;20557;-74
2023/10/07 12:39:30;;;;;;;15.80;14.30;;;17.00;1.00;;;;;;5112279;27;20458;-76
2023/10/07 12:41:57;;;;;;;17.73;16.03;;;17.10;1.00;;;;;;5109723;27;20604;-74
2023/10/07 12:44:26;;;;;;;17.60;15.30;;;17.00;1.00;;;;;;5112845;27;20485;-76
2023/10/07 12:46:54;;;;;;;18.43;16.73;;;17.00;1.00;;;;;;5109920;27;20560;-76
2023/10/07 12:49:22;;;;;;;15.10;13.60;;;17.10;1.00;;;;;;5108504;27;20457;-76
2023/10/07 12:51:49;;;;;;;16.57;15.00;;;17.10;1.00;;;;;;5110218;27;20477;-75
2023/10/07 12:54:17;;;;;;;15.97;13.90;;;17.00;1.00;;;;;;5112436;27;20470;-74
2023/10/07 12:56:46;;;;;;;15.13;13.67;;;17.10;1.00;;;;;;5104901;27;22963;-76
2023/10/07 12:59:21;;;;;;;15.83;13.77;;;17.10;1.00;;;;;;5116731;27;20472;-77
2023/10/07 13:01:54;;;;;;;17.53;12.90;;;17.10;1.00;;;;;;5111748;27;20457;-76
2023/10/07 13:04:25;;;;;;;13.60;12.20;;;17.20;1.00;;;;;;5107179;27;20481;-76
2023/10/07 13:06:57;;;;;;;14.80;12.70;;;17.30;1.00;;;;;;5112019;27;20490;-76
2023/10/07 13:09:29;;;;;;;13.43;12.17;;;17.40;1.00;;;;;;5110799;27;20559;-74
2023/10/07 13:11:56;;;;;;;13.20;12.00;;;17.50;1.00;;;;;;5112584;27;20520;-77
2023/10/07 13:14:26;;;;;;;13.77;12.37;;;17.60;1.00;;;;;;5109369;27;20454;-76
2023/10/07 13:16:56;;;;;;;14.27;12.80;;;17.70;1.00;;;;;;5110654;27;20462;-72
2023/10/07 13:19:26;;;;;;;13.40;12.20;;;17.80;1.00;;;;;;5110155;27;20450;-69
2023/10/07 13:21:55;;;;;;;12.53;11.27;;;17.80;1.00;;;;;;5109244;27;20467;-70
2023/10/07 13:24:22;;;;;;;11.70;10.50;;;17.90;1.00;;;;;;5108210;27;20542;-70
2023/10/07 13:26:49;;;;;;;12.53;11.33;;;18.00;1.00;;;;;;5109879;27;20470;-70